createdAt,value
2018-06-09T00:01:50.176Z,24.99
2018-06-09T00:04:18.763Z,24.98
2018-06-09T00:06:47.358Z,24.96
2018-06-09T00:09:15.875Z,24.94
2018-06-09T00:11:44.533Z,24.94
2018-06-09T00:14:13.607Z,24.94
2018-06-09T00:16:52.492Z,24.96
2018-06-09T00:19:21.122Z,24.94
2018-06-09T00:21:49.736Z,24.97
2018-06-09T00:24:18.230Z,25.00
2018-06-09T00:26:47.217Z,25.02
2018-06-09T00:29:15.728Z,25.03
2018-06-09T00:31:44.276Z,25.02
2018-06-09T00:34:12.788Z,25.03
2018-06-09T00:36:41.368Z,25.05
2018-06-09T00:39:09.884Z,25.03
2018-06-09T00:41:38.509Z,25.03
2018-06-09T00:44:07.282Z,25.00
2018-06-09T00:46:36.305Z,25.01
2018-06-09T00:49:04.956Z,24.99
2018-06-09T00:51:33.542Z,24.96
2018-06-09T00:54:02.101Z,24.95
2018-06-09T00:56:41.820Z,24.93
2018-06-09T00:59:10.583Z,24.88
2018-06-09T01:01:39.287Z,24.84
2018-06-09T01:04:07.950Z,24.78
2018-06-09T01:06:36.618Z,24.75
2018-06-09T01:09:09.824Z,24.69
2018-06-09T01:11:38.527Z,24.66
2018-06-09T01:14:07.181Z,24.61
2018-06-09T01:16:36.002Z,24.57
2018-06-09T01:19:04.661Z,24.51
2018-06-09T01:21:33.340Z,24.48
2018-06-09T01:24:02.115Z,24.45
2018-06-09T01:26:30.736Z,24.43
2018-06-09T01:28:59.453Z,24.40
2018-06-09T01:31:28.136Z,24.37
2018-06-09T01:33:56.765Z,24.35
2018-06-09T01:36:25.504Z,24.31
2018-06-09T01:38:54.254Z,24.26
2018-06-09T01:41:22.920Z,24.22
2018-06-09T01:43:51.644Z,24.18
2018-06-09T01:46:20.380Z,24.16
2018-06-09T01:48:49.068Z,24.13
2018-06-09T01:51:17.739Z,24.11
2018-06-09T01:53:46.600Z,24.06
2018-06-09T01:56:15.159Z,24.03
2018-06-09T01:58:43.821Z,23.99
2018-06-09T02:01:12.419Z,23.94
2018-06-09T02:03:41.018Z,23.88
2018-06-09T02:06:09.693Z,23.85
2018-06-09T02:08:38.239Z,23.83
2018-06-09T02:11:06.779Z,23.81
2018-06-09T02:13:35.311Z,23.79
2018-06-09T02:16:03.817Z,23.78
2018-06-09T02:18:32.401Z,23.81
2018-06-09T02:21:01.023Z,23.83
2018-06-09T02:23:29.653Z,23.85
2018-06-09T02:25:58.300Z,23.89
2018-06-09T02:28:26.800Z,23.91
2018-06-09T02:30:55.367Z,23.92
2018-06-09T02:33:23.906Z,23.91
2018-06-09T02:35:52.411Z,23.94
2018-06-09T02:38:21.001Z,23.95
2018-06-09T02:40:49.490Z,23.98
2018-06-09T02:43:18.071Z,23.98
2018-06-09T02:45:47.022Z,24.00
2018-06-09T02:48:15.609Z,24.00
2018-06-09T02:50:44.277Z,24.01
2018-06-09T02:53:12.885Z,24.02
2018-06-09T02:55:41.668Z,24.03
2018-06-09T02:58:10.203Z,24.03
2018-06-09T03:00:38.785Z,24.03
2018-06-09T03:03:07.399Z,24.01
2018-06-09T03:05:35.874Z,24.02
2018-06-09T03:08:04.732Z,24.00
2018-06-09T03:10:33.276Z,23.98
2018-06-09T03:13:01.991Z,23.96
2018-06-09T03:15:30.487Z,23.94
2018-06-09T03:17:59.028Z,23.93
2018-06-09T03:20:27.499Z,23.92
2018-06-09T03:22:57.140Z,23.89
2018-06-09T03:25:25.639Z,23.87
2018-06-09T03:27:54.147Z,23.86
2018-06-09T03:30:22.778Z,23.84
2018-06-09T03:32:51.327Z,23.84
2018-06-09T03:35:19.948Z,23.84
2018-06-09T03:37:48.496Z,23.83
2018-06-09T03:40:17.085Z,23.84
2018-06-09T03:42:45.589Z,23.85
2018-06-09T03:45:14.310Z,23.86
2018-06-09T03:47:43.152Z,23.88
2018-06-09T03:50:11.875Z,23.91
2018-06-09T03:52:40.633Z,23.94
2018-06-09T03:55:09.464Z,23.97
2018-06-09T03:57:38.082Z,23.98
2018-06-09T04:00:06.783Z,23.99
2018-06-09T04:02:35.356Z,23.96
2018-06-09T04:05:03.988Z,24.03
2018-06-09T04:07:32.497Z,24.05
2018-06-09T04:10:01.064Z,24.07
2018-06-09T04:12:29.596Z,24.10
2018-06-09T04:14:58.229Z,24.16
2018-06-09T04:17:26.727Z,24.23
2018-06-09T04:19:55.266Z,24.29
2018-06-09T04:22:23.795Z,24.36
2018-06-09T04:24:52.392Z,24.44
2018-06-09T04:27:20.948Z,24.51
2018-06-09T04:29:49.481Z,24.61
2018-06-09T04:32:18.108Z,24.68
2018-06-09T04:34:46.691Z,24.79
2018-06-09T04:37:15.305Z,24.87
2018-06-09T04:39:43.872Z,24.93
2018-06-09T04:42:12.433Z,25.00
2018-06-09T04:44:41.124Z,25.08
2018-06-09T04:47:09.668Z,25.15
2018-06-09T04:49:38.284Z,25.23
2018-06-09T04:52:06.923Z,25.28
2018-06-09T04:54:35.427Z,25.32
2018-06-09T04:57:04.022Z,25.39
2018-06-09T04:59:32.611Z,25.46
2018-06-09T05:02:01.258Z,25.51
2018-06-09T05:04:29.951Z,25.56
2018-06-09T05:06:58.588Z,25.64
2018-06-09T05:09:27.174Z,25.73
2018-06-09T05:11:55.680Z,25.81
2018-06-09T05:14:24.230Z,25.86
2018-06-09T05:16:52.749Z,25.89
2018-06-09T05:19:21.509Z,25.90
2018-06-09T05:21:50.087Z,25.88
2018-06-09T05:24:18.611Z,25.85
2018-06-09T05:26:47.174Z,25.82
2018-06-09T05:29:15.847Z,25.79
2018-06-09T05:31:44.446Z,25.81
2018-06-09T05:34:13.243Z,25.84
2018-06-09T05:36:41.969Z,25.86
2018-06-09T05:39:10.585Z,25.90
2018-06-09T05:41:39.240Z,25.93
2018-06-09T05:44:07.785Z,26.00
2018-06-09T05:46:36.440Z,26.06
2018-06-09T05:49:05.017Z,26.17
2018-06-09T05:51:33.535Z,26.30
2018-06-09T05:54:02.113Z,26.41
2018-06-09T05:56:30.638Z,26.53
2018-06-09T05:58:59.321Z,26.66
2018-06-09T06:01:27.910Z,26.80
2018-06-09T06:03:56.500Z,26.94
2018-06-09T06:06:25.287Z,27.07
2018-06-09T06:08:53.898Z,27.31
2018-06-09T06:11:22.437Z,27.57
2018-06-09T06:13:50.990Z,27.84
2018-06-09T06:16:19.617Z,28.19
2018-06-09T06:18:48.185Z,28.58
2018-06-09T06:21:16.769Z,29.01
2018-06-09T06:23:45.408Z,29.39
2018-06-09T06:26:14.271Z,29.78
2018-06-09T06:28:42.842Z,30.11
2018-06-09T06:31:11.433Z,30.32
2018-06-09T06:33:40.007Z,30.58
2018-06-09T06:36:08.581Z,30.87
2018-06-09T06:38:37.168Z,31.22
2018-06-09T06:41:05.964Z,31.63
2018-06-09T06:43:34.966Z,32.09
2018-06-09T06:46:03.523Z,32.48
2018-06-09T06:48:32.043Z,32.66
2018-06-09T06:51:00.740Z,32.78
2018-06-09T06:53:29.419Z,33.01
2018-06-09T06:55:58.105Z,33.31
2018-06-09T06:58:26.808Z,33.72
2018-06-09T07:00:55.392Z,34.06
2018-06-09T07:03:24.228Z,34.38
2018-06-09T07:05:53.140Z,34.69
2018-06-09T07:08:21.822Z,34.92
2018-06-09T07:10:50.715Z,35.06
2018-06-09T07:13:19.648Z,35.20
2018-06-09T07:15:48.415Z,35.34
2018-06-09T07:18:17.221Z,35.50
2018-06-09T07:20:46.055Z,35.75
2018-06-09T07:23:14.833Z,35.89
2018-06-09T07:25:43.456Z,36.04
2018-06-09T07:28:12.171Z,36.18
2018-06-09T07:30:40.734Z,36.33
2018-06-09T07:33:09.531Z,36.66
2018-06-09T07:35:38.324Z,37.05
2018-06-09T07:38:07.008Z,37.35
2018-06-09T07:40:35.749Z,37.58
2018-06-09T07:43:04.457Z,37.86
2018-06-09T07:45:33.175Z,38.15
2018-06-09T07:48:01.844Z,38.39
2018-06-09T07:50:30.505Z,38.45
2018-06-09T07:52:59.336Z,38.48
2018-06-09T07:55:27.949Z,38.56
2018-06-09T07:57:57.028Z,38.80
2018-06-09T08:00:30.530Z,39.19
2018-06-09T08:02:59.817Z,39.50
2018-06-09T08:05:28.792Z,39.88
2018-06-09T08:07:57.780Z,40.20
2018-06-09T08:10:31.558Z,40.40
2018-06-09T08:13:00.751Z,40.69
2018-06-09T08:15:29.904Z,40.96
2018-06-09T08:17:58.925Z,41.27
2018-06-09T08:20:27.716Z,41.55
2018-06-09T08:22:56.430Z,41.87
2018-06-09T08:25:26.418Z,42.18
2018-06-09T08:27:55.064Z,42.54
2018-06-09T08:30:23.786Z,42.79
2018-06-09T08:32:52.543Z,42.86
2018-06-09T08:35:21.268Z,42.66
2018-06-09T08:37:49.941Z,41.90
2018-06-09T08:40:18.796Z,42.02
2018-06-09T08:42:47.786Z,41.96
2018-06-09T08:45:16.948Z,42.13
2018-06-09T08:47:45.713Z,42.42
2018-06-09T08:50:14.523Z,42.82
2018-06-09T08:52:43.205Z,43.04
2018-06-09T08:55:12.194Z,43.03
2018-06-09T08:57:41.074Z,43.20
2018-06-09T09:00:09.913Z,42.09
2018-06-09T09:02:38.806Z,43.36
2018-06-09T09:05:07.545Z,43.27
2018-06-09T09:07:36.248Z,43.05
2018-06-09T09:10:04.872Z,42.78
2018-06-09T09:12:33.653Z,42.88
2018-06-09T09:15:02.390Z,43.12
2018-06-09T09:17:31.262Z,43.44
2018-06-09T09:20:00.022Z,43.55
2018-06-09T09:22:28.979Z,43.63
2018-06-09T09:24:57.873Z,43.96
2018-06-09T09:27:26.685Z,44.26
2018-06-09T09:29:55.321Z,44.33
2018-06-09T09:32:24.048Z,44.40
2018-06-09T09:34:52.670Z,43.84
2018-06-09T09:37:21.431Z,44.01
2018-06-09T09:39:50.068Z,43.86
2018-06-09T09:42:18.727Z,43.96
2018-06-09T09:44:47.262Z,44.02
2018-06-09T09:47:15.908Z,44.15
2018-06-09T09:49:45.729Z,44.36
2018-06-09T09:52:14.500Z,44.55
2018-06-09T09:54:43.310Z,44.80
2018-06-09T09:57:12.397Z,44.86
2018-06-09T09:59:41.283Z,45.27
2018-06-09T10:02:11.154Z,45.77
2018-06-09T10:04:40.253Z,46.32
2018-06-09T10:07:09.781Z,46.71
2018-06-09T10:09:38.996Z,47.00
2018-06-09T10:12:07.867Z,47.28
2018-06-09T10:14:36.677Z,47.68
2018-06-09T10:17:05.456Z,47.77
2018-06-09T10:19:34.140Z,47.62
2018-06-09T10:22:03.064Z,47.99
2018-06-09T10:24:31.839Z,48.41
2018-06-09T10:27:00.467Z,48.71
2018-06-09T10:29:29.333Z,48.91
2018-06-09T10:31:57.965Z,49.23
2018-06-09T10:34:26.739Z,49.60
2018-06-09T10:36:55.493Z,50.10
2018-06-09T10:39:24.186Z,50.48
2018-06-09T10:41:52.791Z,50.61
2018-06-09T10:44:21.396Z,50.81
2018-06-09T10:46:50.424Z,51.19
2018-06-09T10:49:19.022Z,51.40
2018-06-09T10:51:48.384Z,51.58
2018-06-09T10:54:17.098Z,51.74
2018-06-09T10:56:45.721Z,51.87
2018-06-09T10:59:14.496Z,51.91
2018-06-09T11:01:43.692Z,51.85
2018-06-09T11:04:12.272Z,51.62
2018-06-09T11:06:41.488Z,51.37
2018-06-09T11:09:10.228Z,51.09
2018-06-09T11:11:38.991Z,50.82
2018-06-09T11:14:07.654Z,50.35
2018-06-09T11:16:36.355Z,49.67
2018-06-09T11:19:05.234Z,48.82
2018-06-09T11:21:33.924Z,48.20
2018-06-09T11:24:02.565Z,47.69
2018-06-09T11:26:31.873Z,47.04
2018-06-09T11:29:06.155Z,46.30
2018-06-09T11:31:35.162Z,45.49
2018-06-09T11:34:03.903Z,44.93
2018-06-09T11:36:32.735Z,44.33
2018-06-09T11:39:01.366Z,43.79
2018-06-09T11:41:30.109Z,43.26
2018-06-09T11:43:58.888Z,42.76
2018-06-09T11:46:27.729Z,42.42
2018-06-09T11:48:56.417Z,42.02
2018-06-09T11:51:25.155Z,41.69
2018-06-09T11:53:53.985Z,41.41
2018-06-09T11:56:22.559Z,41.12
2018-06-09T11:58:51.069Z,40.94
2018-06-09T12:01:19.660Z,40.79
2018-06-09T12:03:48.275Z,40.65
2018-06-09T12:06:16.904Z,40.43
2018-06-09T12:08:45.500Z,40.22
2018-06-09T12:11:14.082Z,40.04
2018-06-09T12:13:42.722Z,39.91
2018-06-09T12:16:11.396Z,39.74
2018-06-09T12:18:40.089Z,39.53
2018-06-09T12:21:08.645Z,39.39
2018-06-09T12:23:37.207Z,39.23
2018-06-09T12:26:05.779Z,39.10
2018-06-09T12:28:34.477Z,38.89
2018-06-09T12:31:03.136Z,38.61
2018-06-09T12:33:31.953Z,38.31
2018-06-09T12:36:01.484Z,38.13
2018-06-09T12:38:30.611Z,38.01
2018-06-09T12:41:00.222Z,37.85
2018-06-09T12:43:29.994Z,37.69
2018-06-09T12:45:58.909Z,37.49
2018-06-09T12:48:27.792Z,37.37
2018-06-09T12:50:56.685Z,37.40
2018-06-09T12:53:25.477Z,37.45
2018-06-09T12:55:54.597Z,37.52
2018-06-09T12:58:23.661Z,37.51
2018-06-09T13:00:52.622Z,37.51
2018-06-09T13:03:21.546Z,37.52
2018-06-09T13:05:50.853Z,37.52
2018-06-09T13:08:20.294Z,37.48
2018-06-09T13:10:48.948Z,37.43
2018-06-09T13:13:18.239Z,37.23
2018-06-09T13:15:47.239Z,37.16
2018-06-09T13:18:16.433Z,37.18
2018-06-09T13:20:45.558Z,37.21
2018-06-09T13:23:14.217Z,37.23
2018-06-09T13:25:43.056Z,37.28
2018-06-09T13:28:11.597Z,37.16
2018-06-09T13:30:40.173Z,37.12
2018-06-09T13:33:09.257Z,37.10
2018-06-09T13:35:37.797Z,37.16
2018-06-09T13:38:06.478Z,37.21
2018-06-09T13:40:35.155Z,37.21
2018-06-09T13:43:03.745Z,37.17
2018-06-09T13:45:32.359Z,37.09
2018-06-09T13:48:00.934Z,37.04
2018-06-09T13:50:29.540Z,37.03
2018-06-09T13:52:58.521Z,37.05
2018-06-09T13:55:27.101Z,36.99
2018-06-09T13:57:56.117Z,36.96
2018-06-09T14:00:24.841Z,36.95
2018-06-09T14:02:53.441Z,36.96
2018-06-09T14:05:22.245Z,36.97
2018-06-09T14:07:51.034Z,36.97
2018-06-09T14:10:19.728Z,36.94
2018-06-09T14:12:48.364Z,36.91
2018-06-09T14:15:16.948Z,36.83
2018-06-09T14:17:45.648Z,36.79
2018-06-09T14:20:14.493Z,36.79
2018-06-09T14:22:43.092Z,36.67
2018-06-09T14:25:11.662Z,36.60
2018-06-09T14:27:40.276Z,36.54
2018-06-09T14:30:08.868Z,36.54
2018-06-09T14:32:37.655Z,36.56
2018-06-09T14:35:06.809Z,36.48
2018-06-09T14:37:35.598Z,36.48
2018-06-09T14:40:04.209Z,36.47
2018-06-09T14:42:32.895Z,36.49
2018-06-09T14:45:01.560Z,36.52
2018-06-09T14:47:30.175Z,36.59
2018-06-09T14:49:59.028Z,36.60
2018-06-09T14:52:27.816Z,36.45
2018-06-09T14:54:56.604Z,36.27
2018-06-09T14:57:25.229Z,36.18
2018-06-09T14:59:53.899Z,36.12
2018-06-09T15:02:22.852Z,36.14
2018-06-09T15:04:52.140Z,36.18
2018-06-09T15:07:20.920Z,36.18
2018-06-09T15:09:49.654Z,36.08
2018-06-09T15:12:18.521Z,36.04
2018-06-09T15:14:47.484Z,36.05
2018-06-09T15:17:16.314Z,36.06
2018-06-09T15:19:46.379Z,36.08
2018-06-09T15:22:16.293Z,36.07
2018-06-09T15:24:45.388Z,36.06
2018-06-09T15:27:14.245Z,36.04
2018-06-09T15:29:43.890Z,35.99
2018-06-09T15:32:12.881Z,35.91
2018-06-09T15:34:42.275Z,35.89
2018-06-09T15:37:11.163Z,35.87
2018-06-09T15:39:40.058Z,35.83
2018-06-09T15:42:09.071Z,35.82
2018-06-09T15:44:38.109Z,35.79
2018-06-09T15:47:07.148Z,35.75
2018-06-09T15:49:36.409Z,35.70
2018-06-09T15:52:05.148Z,35.66
2018-06-09T15:54:34.136Z,35.64
2018-06-09T15:57:02.916Z,35.59
2018-06-09T15:59:31.953Z,35.51
2018-06-09T16:02:00.773Z,35.47
2018-06-09T16:04:32.811Z,35.45
2018-06-09T16:07:01.843Z,35.36
2018-06-09T16:09:30.956Z,35.33
2018-06-09T16:12:00.006Z,35.33
2018-06-09T16:14:28.981Z,35.23
2018-06-09T16:16:58.069Z,35.12
2018-06-09T16:19:28.506Z,34.99
2018-06-09T16:21:58.538Z,34.82
2018-06-09T16:27:27.768Z,34.61
2018-06-09T16:29:58.406Z,34.53
2018-06-09T16:35:39.387Z,34.44
2018-06-09T16:38:11.318Z,34.44
2018-06-09T16:40:57.255Z,34.39
2018-06-09T16:43:29.641Z,34.37
2018-06-09T16:45:59.760Z,34.43
2018-06-09T16:48:28.486Z,34.43
2018-06-09T16:50:57.858Z,34.50
2018-06-09T16:53:26.832Z,34.49
2018-06-09T16:55:55.512Z,34.44
2018-06-09T16:58:24.285Z,34.38
2018-06-09T17:00:53.112Z,34.31
2018-06-09T17:03:22.218Z,34.19
2018-06-09T17:05:50.829Z,34.15
2018-06-09T17:08:26.776Z,34.12
2018-06-09T17:10:55.925Z,34.13
2018-06-09T17:13:38.287Z,34.13
2018-06-09T17:22:14.930Z,34.14
2018-06-09T17:24:44.800Z,34.14
2018-06-09T17:27:14.592Z,34.13
2018-06-09T17:29:43.974Z,34.10
2018-06-09T17:32:13.369Z,34.03
2018-06-09T17:37:18.259Z,33.88
2018-06-09T17:39:47.317Z,33.81
2018-06-09T17:42:16.850Z,33.76
2018-06-09T17:44:45.651Z,33.69
2018-06-09T17:47:15.097Z,33.66
2018-06-09T17:49:43.956Z,33.63
2018-06-09T17:52:12.855Z,33.64
2018-06-09T17:54:42.933Z,33.00
2018-06-09T17:57:11.748Z,33.68
2018-06-09T17:59:40.586Z,33.66
2018-06-09T18:02:09.526Z,33.68
2018-06-09T18:04:38.166Z,33.67
2018-06-09T18:07:07.036Z,33.65
2018-06-09T18:09:36.340Z,33.62
2018-06-09T18:12:05.288Z,33.56
2018-06-09T18:14:34.044Z,33.51
2018-06-09T18:17:03.146Z,33.47
2018-06-09T18:19:32.019Z,33.40
2018-06-09T18:22:00.553Z,33.33
2018-06-09T18:24:29.365Z,33.24
2018-06-09T18:26:59.177Z,33.14
2018-06-09T18:29:28.039Z,33.03
2018-06-09T18:31:57.038Z,32.93
2018-06-09T18:34:25.987Z,32.85
2018-06-09T18:36:54.717Z,32.75
2018-06-09T18:39:23.731Z,32.67
2018-06-09T18:41:52.753Z,32.57
2018-06-09T18:44:21.976Z,32.45
2018-06-09T18:46:50.836Z,32.30
2018-06-09T18:49:19.549Z,32.25
2018-06-09T18:51:49.394Z,32.18
2018-06-09T18:54:18.037Z,32.11
2018-06-09T18:56:46.813Z,32.03
2018-06-09T18:59:15.497Z,31.97
2018-06-09T19:01:45.533Z,31.90
2018-06-09T19:04:15.813Z,31.80
2018-06-09T19:06:48.053Z,31.77
2018-06-09T19:09:17.033Z,31.69
2018-06-09T19:11:45.901Z,31.64
2018-06-09T19:14:14.962Z,31.56
2018-06-09T19:16:44.259Z,31.51
2018-06-09T19:19:13.258Z,31.44
2018-06-09T19:21:42.187Z,31.39
2018-06-09T19:26:57.140Z,31.28
2018-06-09T19:29:27.297Z,31.23
2018-06-09T19:31:57.739Z,31.16
2018-06-09T19:34:27.370Z,31.12
2018-06-09T19:36:57.056Z,31.06
2018-06-09T19:39:26.770Z,31.00
2018-06-09T19:41:56.688Z,30.95
2018-06-09T19:44:34.165Z,30.91
2018-06-09T19:47:06.814Z,30.85
2018-06-09T19:49:36.646Z,30.80
2018-06-09T19:52:07.342Z,30.75
2018-06-09T19:54:36.346Z,30.71
2018-06-09T19:57:05.632Z,30.67
2018-06-09T19:59:34.969Z,30.61
2018-06-09T20:02:05.916Z,30.57
2018-06-09T20:04:35.719Z,30.49
2018-06-09T20:07:05.355Z,30.45
2018-06-09T20:09:35.156Z,30.40
2018-06-09T20:12:08.744Z,30.32
2018-06-09T20:14:40.336Z,30.26
2018-06-09T20:17:11.107Z,30.19
2018-06-09T20:19:41.124Z,30.14
2018-06-09T20:22:10.451Z,30.09
2018-06-09T20:24:40.139Z,30.05
2018-06-09T20:27:11.488Z,29.99
2018-06-09T20:29:41.184Z,29.96
2018-06-09T20:32:11.172Z,29.92
2018-06-09T20:34:40.196Z,29.88
2018-06-09T20:37:13.853Z,29.82
2018-06-09T20:39:43.018Z,29.78
2018-06-09T20:42:14.247Z,29.73
2018-06-09T20:47:21.358Z,29.66
2018-06-09T20:49:50.840Z,29.62
2018-06-09T20:52:20.042Z,29.57
2018-06-09T20:54:50.210Z,29.51
2018-06-09T20:57:19.973Z,29.47
2018-06-09T20:59:49.773Z,29.39
2018-06-09T21:02:19.109Z,29.32
2018-06-09T21:04:48.343Z,29.28
2018-06-09T21:07:18.627Z,29.25
2018-06-09T21:09:48.655Z,29.25
2018-06-09T21:12:17.757Z,29.23
2018-06-09T21:14:47.231Z,29.20
2018-06-09T21:17:16.319Z,29.18
2018-06-09T21:19:45.273Z,29.14
2018-06-09T21:22:14.694Z,29.11
2018-06-09T21:24:44.023Z,29.10
2018-06-09T21:27:18.130Z,29.09
2018-06-09T21:29:55.496Z,26.97
2018-06-09T21:32:28.033Z,28.99
2018-06-09T21:35:11.906Z,28.96
2018-06-09T21:37:43.816Z,28.91
2018-06-09T21:40:17.917Z,28.88
2018-06-09T21:42:52.165Z,28.85
2018-06-09T21:45:23.983Z,28.81
2018-06-09T21:47:53.237Z,28.76
2018-06-09T21:50:22.180Z,28.72
2018-06-09T21:52:51.271Z,28.67
2018-06-09T21:55:20.037Z,28.64
2018-06-09T21:57:48.749Z,28.63
2018-06-09T22:00:17.488Z,28.62
2018-06-09T22:02:46.143Z,28.62
2018-06-09T22:05:14.918Z,28.60
2018-06-09T22:07:43.747Z,28.58
2018-06-09T22:10:12.455Z,28.59
2018-06-09T22:12:41.158Z,28.60
2018-06-09T22:15:09.866Z,28.60
2018-06-09T22:17:38.574Z,28.60
2018-06-09T22:20:07.580Z,28.60
2018-06-09T22:22:37.252Z,28.59
2018-06-09T22:25:05.903Z,28.60
2018-06-09T22:27:34.477Z,28.60
2018-06-09T22:30:03.407Z,28.60
2018-06-09T22:32:32.187Z,28.60
2018-06-09T22:35:00.915Z,28.58
2018-06-09T22:37:29.608Z,28.54
2018-06-09T22:39:58.316Z,28.52
2018-06-09T22:42:26.929Z,28.48
2018-06-09T22:44:55.674Z,28.45
2018-06-09T22:47:24.453Z,28.41
2018-06-09T22:49:53.182Z,28.41
2018-06-09T22:52:21.880Z,28.39
2018-06-09T22:54:50.580Z,28.41
2018-06-09T22:57:19.368Z,28.39
2018-06-09T22:59:48.022Z,28.36
2018-06-09T23:02:16.660Z,28.37
2018-06-09T23:04:45.367Z,28.36
2018-06-09T23:07:14.081Z,28.35
2018-06-09T23:09:42.651Z,28.36
2018-06-09T23:12:11.242Z,28.37
2018-06-09T23:14:39.932Z,28.35
2018-06-09T23:17:08.550Z,28.35
2018-06-09T23:19:37.390Z,28.34
2018-06-09T23:22:06.070Z,28.33
2018-06-09T23:24:34.649Z,28.31
2018-06-09T23:27:03.309Z,28.26
2018-06-09T23:29:31.994Z,28.19
2018-06-09T23:32:00.735Z,28.07
2018-06-09T23:34:29.317Z,27.87
2018-06-09T23:36:57.908Z,27.53
2018-06-09T23:39:26.463Z,27.17
2018-06-09T23:41:55.151Z,26.68
2018-06-09T23:44:23.704Z,26.16
2018-06-09T23:46:52.340Z,25.68
2018-06-09T23:49:20.947Z,25.42
2018-06-09T23:51:49.562Z,25.18
2018-06-09T23:54:18.213Z,24.94
2018-06-09T23:56:46.905Z,24.68
2018-06-09T23:59:15.509Z,24.59
